createdAt,value
2022-10-22T00:00:39.978Z,100.00
2022-10-22T00:03:41.769Z,100.00
2022-10-22T00:06:45.075Z,100.00
2022-10-22T00:09:47.698Z,100.00
2022-10-22T00:12:49.433Z,100.00
2022-10-22T00:15:51.230Z,100.00
2022-10-22T00:18:53.151Z,100.00
2022-10-22T00:21:54.834Z,100.00
2022-10-22T00:24:56.443Z,100.00
2022-10-22T00:27:58.032Z,100.00
2022-10-22T00:31:00.826Z,100.00
2022-10-22T00:34:02.697Z,100.00
2022-10-22T00:37:04.347Z,100.00
2022-10-22T00:40:06.457Z,100.00
2022-10-22T00:43:19.782Z,100.00
2022-10-22T00:46:21.587Z,100.00
2022-10-22T00:49:23.241Z,100.00
2022-10-22T00:52:25.378Z,100.00
2022-10-22T00:55:28.685Z,100.00
2022-10-22T00:58:35.025Z,100.00
2022-10-22T01:01:36.560Z,100.00
2022-10-22T01:04:38.164Z,100.00
2022-10-22T01:07:50.399Z,100.00
2022-10-22T01:11:06.863Z,100.00
2022-10-22T01:14:22.880Z,100.00
2022-10-22T01:17:49.706Z,100.00
2022-10-22T01:21:04.656Z,100.00
2022-10-22T01:24:11.799Z,100.00
2022-10-22T01:27:41.278Z,100.00
2022-10-22T01:30:45.938Z,100.00
2022-10-22T01:33:49.136Z,100.00
2022-10-22T01:36:52.955Z,100.00
2022-10-22T01:39:57.193Z,100.00
2022-10-22T01:43:01.345Z,100.00
2022-10-22T01:46:05.921Z,100.00
2022-10-22T01:49:12.665Z,100.00
2022-10-22T01:52:20.765Z,100.00
2022-10-22T01:55:32.479Z,100.00
2022-10-22T01:59:04.541Z,100.00
2022-10-22T02:02:30.838Z,100.00
2022-10-22T02:05:48.771Z,100.00
2022-10-22T02:08:52.728Z,100.00
2022-10-22T02:11:55.945Z,100.00
2022-10-22T02:14:59.050Z,100.00
2022-10-22T02:18:01.825Z,100.00
2022-10-22T02:21:04.410Z,100.00
2022-10-22T02:24:07.094Z,100.00
2022-10-22T02:27:26.871Z,100.00
2022-10-22T02:30:28.878Z,100.00
2022-10-22T02:33:36.255Z,100.00
2022-10-22T02:36:39.149Z,100.00
2022-10-22T02:39:41.218Z,100.00
2022-10-22T02:42:43.964Z,100.00
2022-10-22T02:45:46.983Z,100.00
2022-10-22T02:48:48.633Z,100.00
2022-10-22T02:51:50.223Z,100.00
2022-10-22T02:54:51.845Z,100.00
2022-10-22T02:57:53.459Z,100.00
2022-10-22T03:00:55.096Z,100.00
2022-10-22T03:03:56.778Z,100.00
2022-10-22T03:06:58.466Z,100.00
2022-10-22T03:10:00.216Z,100.00
2022-10-22T03:13:01.850Z,100.00
2022-10-22T03:16:03.781Z,100.00
2022-10-22T03:19:05.366Z,100.00
2022-10-22T03:22:12.680Z,100.00
2022-10-22T03:25:19.482Z,100.00
2022-10-22T03:28:21.111Z,100.00
2022-10-22T03:31:22.760Z,100.00
2022-10-22T03:34:24.390Z,100.00
2022-10-22T03:37:27.382Z,100.00
2022-10-22T03:40:29.234Z,98.82
2022-10-22T03:43:30.879Z,99.81
2022-10-22T03:46:32.679Z,99.38
2022-10-22T03:49:34.358Z,99.84
2022-10-22T03:52:38.454Z,100.00
2022-10-22T03:55:41.723Z,99.24
2022-10-22T03:58:43.405Z,100.00
2022-10-22T04:01:45.060Z,100.00
2022-10-22T04:04:46.622Z,99.96
2022-10-22T04:07:48.237Z,100.00
2022-10-22T04:10:52.885Z,100.00
2022-10-22T04:13:54.614Z,100.00
2022-10-22T04:16:56.230Z,100.00
2022-10-22T04:19:57.795Z,100.00
2022-10-22T04:22:59.427Z,100.00
2022-10-22T04:26:03.237Z,100.00
2022-10-22T04:29:10.536Z,100.00
2022-10-22T04:32:15.113Z,100.00
2022-10-22T04:35:16.826Z,100.00
2022-10-22T04:38:18.565Z,100.00
2022-10-22T04:41:23.645Z,100.00
2022-10-22T04:44:25.289Z,100.00
2022-10-22T04:47:27.221Z,100.00
2022-10-22T04:50:29.103Z,100.00
2022-10-22T04:53:30.790Z,100.00
2022-10-22T04:56:33.038Z,100.00
2022-10-22T04:59:34.715Z,100.00
2022-10-22T05:02:36.317Z,100.00
2022-10-22T05:05:37.890Z,100.00
2022-10-22T05:08:39.605Z,100.00
2022-10-22T05:11:45.539Z,100.00
2022-10-22T05:14:47.201Z,100.00
2022-10-22T05:17:48.885Z,100.00
2022-10-22T05:20:50.566Z,100.00
2022-10-22T05:23:54.847Z,100.00
2022-10-22T05:26:57.929Z,100.00
2022-10-22T05:29:59.571Z,100.00
2022-10-22T05:33:01.220Z,100.00
2022-10-22T05:36:05.025Z,100.00
2022-10-22T05:39:06.683Z,100.00
2022-10-22T05:42:08.418Z,100.00
2022-10-22T05:45:10.252Z,100.00
2022-10-22T05:48:11.888Z,100.00
2022-10-22T05:51:14.086Z,100.00
2022-10-22T05:54:18.349Z,100.00
2022-10-22T05:57:20.048Z,100.00
2022-10-22T06:00:21.816Z,100.00
2022-10-22T06:03:23.476Z,100.00
2022-10-22T06:06:38.328Z,100.00
2022-10-22T06:09:39.987Z,100.00
2022-10-22T06:12:41.970Z,100.00
2022-10-22T06:15:43.786Z,100.00
2022-10-22T06:18:45.672Z,100.00
2022-10-22T06:21:48.343Z,100.00
2022-10-22T06:24:49.922Z,100.00
2022-10-22T06:27:51.949Z,100.00
2022-10-22T06:30:53.651Z,100.00
2022-10-22T06:33:57.287Z,100.00
2022-10-22T06:36:58.907Z,100.00
2022-10-22T06:40:00.504Z,100.00
2022-10-22T06:43:02.246Z,99.24
2022-10-22T06:46:07.522Z,99.15
2022-10-22T06:49:12.414Z,97.10
2022-10-22T06:52:14.046Z,98.40
2022-10-22T06:55:15.778Z,98.95
2022-10-22T06:58:17.551Z,98.95
2022-10-22T07:01:23.259Z,99.01
2022-10-22T07:04:25.562Z,98.54
2022-10-22T07:07:27.415Z,98.49
2022-10-22T07:10:30.702Z,98.72
2022-10-22T07:13:32.648Z,97.88
2022-10-22T07:16:34.541Z,97.01
2022-10-22T07:19:36.279Z,95.54
2022-10-22T07:22:38.339Z,92.92
2022-10-22T07:25:41.466Z,91.88
2022-10-22T07:28:43.824Z,91.48
2022-10-22T07:31:45.625Z,91.36
2022-10-22T07:34:47.347Z,91.06
2022-10-22T07:37:49.108Z,89.83
2022-10-22T07:40:50.787Z,87.56
2022-10-22T07:43:52.730Z,88.18
2022-10-22T07:46:55.046Z,90.38
2022-10-22T07:49:56.632Z,89.68
2022-10-22T07:52:58.542Z,86.87
2022-10-22T07:56:00.477Z,86.75
2022-10-22T08:02:10.033Z,85.59
2022-10-22T08:05:13.352Z,86.99
2022-10-22T08:08:16.743Z,83.64
2022-10-22T08:11:18.471Z,85.03
2022-10-22T08:14:20.115Z,85.12
2022-10-22T08:17:21.795Z,83.60
2022-10-22T08:20:23.574Z,83.38
2022-10-22T08:23:27.703Z,83.54
2022-10-22T08:26:30.228Z,83.15
2022-10-22T08:29:32.010Z,83.28
2022-10-22T08:32:33.928Z,84.16
2022-10-22T08:35:35.689Z,83.46
2022-10-22T08:38:37.536Z,83.92
2022-10-22T08:41:53.069Z,85.09
2022-10-22T08:45:07.532Z,83.80
2022-10-22T08:48:27.316Z,83.99
2022-10-22T08:51:40.531Z,82.09
2022-10-22T08:54:53.171Z,81.75
2022-10-22T08:58:08.704Z,84.35
2022-10-22T09:01:16.614Z,80.74
2022-10-22T09:04:31.005Z,78.47
2022-10-22T09:07:32.878Z,80.41
2022-10-22T09:10:38.310Z,81.76
2022-10-22T09:13:45.871Z,79.69
2022-10-22T09:17:10.013Z,81.07
2022-10-22T09:20:44.228Z,80.74
2022-10-22T09:23:49.036Z,80.51
2022-10-22T09:26:51.254Z,78.99
2022-10-22T09:29:52.919Z,80.09
2022-10-22T09:33:01.800Z,80.95
2022-10-22T09:36:06.932Z,80.82
2022-10-22T09:39:26.576Z,78.02
2022-10-22T09:42:28.380Z,80.60
2022-10-22T09:45:32.496Z,80.15
2022-10-22T09:48:37.447Z,77.55
2022-10-22T09:51:50.125Z,77.91
2022-10-22T09:54:52.735Z,79.89
2022-10-22T09:57:58.526Z,79.70
2022-10-22T10:01:01.458Z,79.16
2022-10-22T10:04:09.447Z,76.95
2022-10-22T10:07:17.764Z,78.03
2022-10-22T10:10:34.711Z,75.17
2022-10-22T10:13:59.286Z,76.33
2022-10-22T10:17:33.394Z,75.34
2022-10-22T10:20:46.852Z,74.75
2022-10-22T10:24:05.166Z,72.46
2022-10-22T10:27:20.365Z,74.38
2022-10-22T10:30:24.201Z,73.74
2022-10-22T10:33:45.400Z,72.95
2022-10-22T10:37:14.748Z,74.00
2022-10-22T10:40:38.056Z,74.74
2022-10-22T10:44:13.929Z,71.40
2022-10-22T10:47:29.526Z,69.22
2022-10-22T10:50:45.454Z,72.91
2022-10-22T10:54:19.567Z,68.67
2022-10-22T10:57:42.003Z,69.38
2022-10-22T11:00:57.270Z,72.07
2022-10-22T11:04:24.232Z,69.03
2022-10-22T11:07:34.771Z,69.46
2022-10-22T11:10:43.509Z,69.30
2022-10-22T11:14:11.505Z,64.64
2022-10-22T11:17:18.339Z,64.86
2022-10-22T11:20:27.979Z,63.56
2022-10-22T11:23:38.037Z,63.81
2022-10-22T11:26:53.152Z,64.68
2022-10-22T11:30:03.353Z,63.39
2022-10-22T11:33:11.473Z,62.22
2022-10-22T11:36:13.854Z,60.91
2022-10-22T11:39:37.884Z,60.64
2022-10-22T11:42:44.055Z,63.76
2022-10-22T11:45:50.578Z,62.37
2022-10-22T11:49:02.994Z,61.43
2022-10-22T11:53:21.593Z,61.21
2022-10-22T11:56:25.432Z,60.25
2022-10-22T11:59:39.583Z,60.69
2022-10-22T12:02:45.991Z,62.42
2022-10-22T12:06:22.673Z,63.32
2022-10-22T12:09:30.048Z,61.00
2022-10-22T12:12:36.371Z,58.42
2022-10-22T12:15:48.705Z,59.26
2022-10-22T12:19:04.336Z,58.62
2022-10-22T12:22:25.989Z,60.77
2022-10-22T12:25:35.683Z,58.57
2022-10-22T12:28:40.739Z,57.24
2022-10-22T12:31:44.944Z,60.57
2022-10-22T12:34:52.137Z,60.38
2022-10-22T12:38:12.998Z,61.15
2022-10-22T12:41:15.340Z,60.90
2022-10-22T12:44:18.097Z,61.78
2022-10-22T12:47:19.829Z,58.96
2022-10-22T12:50:29.562Z,59.65
2022-10-22T12:53:35.211Z,61.37
2022-10-22T12:56:37.906Z,57.94
2022-10-22T12:59:45.857Z,59.21
2022-10-22T13:02:51.135Z,59.47
2022-10-22T13:05:52.773Z,63.77
2022-10-22T13:08:57.691Z,63.36
2022-10-22T13:12:07.632Z,59.64
2022-10-22T13:15:43.551Z,58.87
2022-10-22T13:18:46.552Z,59.33
2022-10-22T13:21:49.051Z,57.88
2022-10-22T13:24:51.622Z,60.66
2022-10-22T13:28:02.897Z,57.15
2022-10-22T13:31:34.030Z,56.67
2022-10-22T13:34:36.400Z,58.93
2022-10-22T13:37:38.919Z,57.07
2022-10-22T13:40:41.008Z,58.07
2022-10-22T13:43:42.713Z,53.13
2022-10-22T13:46:45.092Z,57.14
2022-10-22T13:49:47.597Z,56.33
2022-10-22T13:52:54.773Z,54.44
2022-10-22T13:55:56.564Z,56.06
2022-10-22T13:58:58.202Z,52.99
2022-10-22T14:02:06.047Z,56.14
2022-10-22T14:05:09.610Z,57.15
2022-10-22T14:08:21.317Z,54.90
2022-10-22T14:11:23.058Z,54.96
2022-10-22T14:14:24.641Z,56.25
2022-10-22T14:17:27.646Z,56.52
2022-10-22T14:20:31.651Z,59.88
2022-10-22T14:23:36.189Z,57.86
2022-10-22T14:26:37.903Z,55.70
2022-10-22T14:29:39.820Z,52.86
2022-10-22T14:32:41.875Z,55.51
2022-10-22T14:35:44.127Z,59.52
2022-10-22T14:38:47.644Z,54.81
2022-10-22T14:41:49.515Z,59.68
2022-10-22T14:44:51.406Z,60.02
2022-10-22T14:47:57.453Z,59.26
2022-10-22T14:51:28.234Z,60.52
2022-10-22T14:54:36.842Z,62.05
2022-10-22T14:57:42.785Z,64.65
2022-10-22T15:00:48.930Z,63.89
2022-10-22T15:03:51.577Z,66.89
2022-10-22T15:06:56.486Z,66.74
2022-10-22T15:09:58.322Z,67.06
2022-10-22T15:13:00.051Z,68.41
2022-10-22T15:16:07.525Z,69.23
2022-10-22T15:19:11.567Z,68.48
2022-10-22T15:22:15.111Z,70.88
2022-10-22T15:25:16.802Z,68.86
2022-10-22T15:28:18.751Z,70.30
2022-10-22T15:31:43.358Z,73.30
2022-10-22T15:34:44.939Z,74.78
2022-10-22T15:37:46.629Z,76.63
2022-10-22T15:40:48.417Z,76.97
2022-10-22T15:43:50.104Z,75.07
2022-10-22T15:46:52.455Z,75.27
2022-10-22T15:49:54.688Z,75.53
2022-10-22T15:52:57.118Z,77.53
2022-10-22T15:55:58.834Z,76.57
2022-10-22T15:59:04.010Z,77.13
2022-10-22T16:02:07.294Z,76.01
2022-10-22T16:05:09.520Z,76.46
2022-10-22T16:08:11.489Z,76.57
2022-10-22T16:11:13.443Z,75.89
2022-10-22T16:14:17.376Z,76.69
2022-10-22T16:17:19.190Z,77.81
2022-10-22T16:20:20.967Z,77.99
2022-10-22T16:23:23.103Z,77.54
2022-10-22T16:26:24.775Z,78.22
2022-10-22T16:29:26.701Z,78.43
2022-10-22T16:32:28.403Z,78.75
2022-10-22T16:35:30.587Z,78.94
2022-10-22T16:38:33.629Z,78.18
2022-10-22T16:41:36.348Z,79.09
2022-10-22T16:44:38.929Z,78.39
2022-10-22T16:47:43.213Z,79.33
2022-10-22T16:50:45.240Z,79.28
2022-10-22T16:53:47.546Z,78.73
2022-10-22T16:56:49.407Z,78.16
2022-10-22T16:59:51.541Z,78.21
2022-10-22T17:02:53.953Z,76.99
2022-10-22T17:05:58.665Z,77.00
2022-10-22T17:09:00.395Z,77.39
2022-10-22T17:12:02.347Z,77.29
2022-10-22T17:15:05.452Z,76.22
2022-10-22T17:18:07.072Z,77.95
2022-10-22T17:21:10.628Z,77.10
2022-10-22T17:24:12.708Z,77.13
2022-10-22T17:27:14.614Z,76.29
2022-10-22T17:30:23.266Z,76.73
2022-10-22T17:33:28.158Z,75.51
2022-10-22T17:36:33.452Z,75.20
2022-10-22T17:39:38.071Z,74.76
2022-10-22T17:42:40.126Z,75.10
2022-10-22T17:45:42.064Z,74.51
2022-10-22T17:48:44.061Z,74.75
2022-10-22T17:51:46.727Z,75.24
2022-10-22T17:54:50.075Z,75.06
2022-10-22T17:57:51.840Z,74.67
2022-10-22T18:00:53.744Z,74.25
2022-10-22T18:04:00.327Z,75.08
2022-10-22T18:07:02.404Z,75.01
2022-10-22T18:10:04.658Z,75.98
2022-10-22T18:13:06.384Z,76.26
2022-10-22T18:16:08.460Z,76.87
2022-10-22T18:19:11.316Z,77.67
2022-10-22T18:22:13.394Z,77.53
2022-10-22T18:25:15.193Z,77.11
2022-10-22T18:28:18.039Z,76.25
2022-10-22T18:31:22.619Z,76.39
2022-10-22T18:34:24.409Z,76.05
2022-10-22T18:37:26.059Z,76.72
2022-10-22T18:40:30.197Z,75.51
2022-10-22T18:43:31.931Z,74.78
2022-10-22T18:46:35.283Z,74.46
2022-10-22T18:49:37.028Z,74.90
2022-10-22T18:52:38.973Z,74.18
2022-10-22T18:55:41.809Z,74.54
2022-10-22T18:58:46.399Z,74.96
2022-10-22T19:01:48.865Z,74.62
2022-10-22T19:04:50.536Z,74.87
2022-10-22T19:07:52.315Z,74.77
2022-10-22T19:10:54.229Z,74.21
2022-10-22T19:13:55.875Z,74.46
2022-10-22T19:16:57.555Z,74.21
2022-10-22T19:19:59.207Z,73.51
2022-10-22T19:23:01.074Z,73.50
2022-10-22T19:26:02.674Z,74.37
2022-10-22T19:29:04.538Z,74.65
2022-10-22T19:35:08.282Z,73.63
2022-10-22T19:38:10.106Z,73.91
2022-10-22T19:41:14.600Z,73.78
2022-10-22T19:44:16.519Z,73.68
2022-10-22T19:47:18.232Z,73.67
2022-10-22T19:50:20.208Z,71.54
2022-10-22T19:53:21.955Z,72.58
2022-10-22T19:56:23.817Z,72.98
2022-10-22T19:59:29.812Z,73.09
2022-10-22T20:02:33.162Z,72.41
2022-10-22T20:05:38.407Z,71.90
2022-10-22T20:08:40.602Z,71.34
2022-10-22T20:11:43.505Z,70.82
2022-10-22T20:14:45.114Z,70.97
2022-10-22T20:17:46.712Z,71.18
2022-10-22T20:20:48.866Z,71.45
2022-10-22T20:23:54.560Z,72.05
2022-10-22T20:26:56.309Z,72.23
2022-10-22T20:29:57.967Z,72.49
2022-10-22T20:32:59.595Z,73.14
2022-10-22T20:36:04.351Z,72.84
2022-10-22T20:39:09.072Z,72.43
2022-10-22T20:42:11.012Z,71.71
2022-10-22T20:45:12.677Z,71.13
2022-10-22T20:48:14.407Z,72.07
2022-10-22T20:51:16.088Z,73.08
2022-10-22T20:54:19.183Z,72.58
2022-10-22T20:57:20.834Z,72.88
2022-10-22T21:00:22.718Z,72.28
2022-10-22T21:03:24.425Z,71.96
2022-10-22T21:06:26.234Z,72.65
2022-10-22T21:09:28.213Z,71.83
2022-10-22T21:12:30.057Z,72.36
2022-10-22T21:15:31.761Z,73.29
2022-10-22T21:18:34.041Z,74.73
2022-10-22T21:21:35.777Z,75.09
2022-10-22T21:24:37.401Z,75.60
2022-10-22T21:27:39.271Z,74.49
2022-10-22T21:30:45.611Z,74.80
2022-10-22T21:33:49.948Z,75.46
2022-10-22T21:36:52.966Z,76.22
2022-10-22T21:39:54.685Z,75.83
2022-10-22T21:42:57.261Z,74.90
2022-10-22T21:46:12.884Z,75.34
2022-10-22T21:49:14.645Z,76.72
2022-10-22T21:52:16.438Z,76.67
2022-10-22T21:55:18.060Z,76.38
2022-10-22T21:58:19.682Z,76.87
2022-10-22T22:01:21.814Z,77.20
2022-10-22T22:04:23.546Z,77.78
2022-10-22T22:07:25.311Z,77.83
2022-10-22T22:10:27.066Z,77.75
2022-10-22T22:13:28.807Z,78.11
2022-10-22T22:16:32.937Z,78.94
2022-10-22T22:19:34.632Z,79.97
2022-10-22T22:22:36.401Z,80.85
2022-10-22T22:25:38.199Z,81.62
2022-10-22T22:28:40.227Z,80.36
2022-10-22T22:31:43.000Z,81.52
2022-10-22T22:34:44.655Z,79.47
2022-10-22T22:37:46.608Z,81.44
2022-10-22T22:40:48.386Z,80.72
2022-10-22T22:43:51.104Z,81.55
2022-10-22T22:46:52.807Z,81.22
2022-10-22T22:49:54.466Z,81.67
2022-10-22T22:52:56.693Z,82.01
2022-10-22T22:56:13.574Z,81.41
2022-10-22T22:59:15.158Z,80.13
2022-10-22T23:02:17.217Z,79.13
2022-10-22T23:05:18.839Z,78.72
2022-10-22T23:08:20.552Z,78.84
2022-10-22T23:11:23.773Z,81.33
2022-10-22T23:14:25.411Z,80.25
2022-10-22T23:17:27.151Z,79.84
2022-10-22T23:20:28.926Z,78.90
2022-10-22T23:23:32.283Z,84.31
2022-10-22T23:26:40.189Z,85.50
2022-10-22T23:29:41.790Z,86.55
2022-10-22T23:32:43.387Z,86.19
2022-10-22T23:35:45.603Z,86.21
2022-10-22T23:38:47.464Z,88.86
2022-10-22T23:41:49.786Z,86.94
2022-10-22T23:44:51.408Z,86.12
2022-10-22T23:47:53.057Z,85.20
2022-10-22T23:50:54.682Z,86.73
2022-10-22T23:54:01.960Z,87.70
2022-10-22T23:57:03.694Z,88.01
